sensor_id;sensor_type;location;lat;lon;timestamp;pressure;altitude;pressure_sealevel;temperature;humidity
7532;BME280;3807;49.030;8.714;2023-01-27T00:00:07;99671.31;;;2.92;72.30
7532;BME280;3807;49.030;8.714;2023-01-27T00:02:33;99667.94;;;2.92;72.41
7532;BME280;3807;49.030;8.714;2023-01-27T00:04:58;99670.47;;;2.90;72.50
7532;BME280;3807;49.030;8.714;2023-01-27T00:07:24;99673.00;;;2.90;72.46
7532;BME280;3807;49.030;8.714;2023-01-27T00:09:49;99667.13;;;2.93;72.24
7532;BME280;3807;49.030;8.714;2023-01-27T00:12:20;99667.13;;;2.93;72.29
7532;BME280;3807;49.030;8.714;2023-01-27T00:15:05;99667.16;;;3.00;72.08
7532;BME280;3807;49.030;8.714;2023-01-27T00:17:31;99663.78;;;2.91;72.36
7532;BME280;3807;49.030;8.714;2023-01-27T00:19:56;99660.44;;;2.93;72.23
7532;BME280;3807;49.030;8.714;2023-01-27T00:22:21;99657.87;;;2.84;72.54
7532;BME280;3807;49.030;8.714;2023-01-27T00:25:06;99658.72;;;2.84;72.63
7532;BME280;3807;49.030;8.714;2023-01-27T00:27:34;99667.94;;;2.84;72.65
7532;BME280;3807;49.030;8.714;2023-01-27T00:29:59;99661.25;;;2.91;72.45
7532;BME280;3807;49.030;8.714;2023-01-27T00:32:24;99657.06;;;2.86;72.59
7532;BME280;3807;49.030;8.714;2023-01-27T00:35:08;99662.03;;;2.77;72.86
7532;BME280;3807;49.030;8.714;2023-01-27T00:37:35;99666.25;;;2.83;72.66
7532;BME280;3807;49.030;8.714;2023-01-27T00:41:14;99658.81;;;3.41;71.05
7532;BME280;3807;49.030;8.714;2023-01-27T00:43:40;99658.81;;;3.41;71.05
7532;BME280;3807;49.030;8.714;2023-01-27T00:46:06;99670.47;;;2.89;72.39
7532;BME280;3807;49.030;8.714;2023-01-27T00:48:31;99667.13;;;2.91;72.36
7532;BME280;3807;49.030;8.714;2023-01-27T00:50:57;99662.91;;;2.89;72.46
7532;BME280;3807;49.030;8.714;2023-01-27T00:53:22;99657.06;;;2.90;72.37
7532;BME280;3807;49.030;8.714;2023-01-27T00:55:47;99658.72;;;2.87;72.54
7532;BME280;3807;49.030;8.714;2023-01-27T00:58:13;99657.03;;;2.88;72.46
7532;BME280;3807;49.030;8.714;2023-01-27T01:00:38;99655.38;;;2.89;72.45
7532;BME280;3807;49.030;8.714;2023-01-27T01:03:04;99662.94;;;2.90;72.38
7532;BME280;3807;49.030;8.714;2023-01-27T01:05:29;99662.06;;;2.88;72.46
7532;BME280;3807;49.030;8.714;2023-01-27T01:07:55;99657.87;;;2.81;72.63
7532;BME280;3807;49.030;8.714;2023-01-27T01:10:20;99657.87;;;2.92;72.32
7532;BME280;3807;49.030;8.714;2023-01-27T01:12:46;99662.91;;;2.87;72.42
7532;BME280;3807;49.030;8.714;2023-01-27T01:15:11;99667.94;;;2.85;72.51
7532;BME280;3807;49.030;8.714;2023-01-27T01:17:36;99666.28;;;2.86;72.50
7532;BME280;3807;49.030;8.714;2023-01-27T01:20:02;99665.44;;;2.82;72.57
7532;BME280;3807;49.030;8.714;2023-01-27T01:22:27;99669.62;;;2.86;72.44
7532;BME280;3807;49.030;8.714;2023-01-27T01:24:53;99660.38;;;2.84;72.52
7532;BME280;3807;49.030;8.714;2023-01-27T01:27:18;99667.94;;;2.79;72.63
7532;BME280;3807;49.030;8.714;2023-01-27T01:29:43;99660.41;;;2.89;72.40
7532;BME280;3807;49.030;8.714;2023-01-27T01:32:08;99664.56;;;2.85;72.46
7532;BME280;3807;49.030;8.714;2023-01-27T01:34:35;99659.53;;;2.85;72.51
7532;BME280;3807;49.030;8.714;2023-01-27T01:37:01;99658.69;;;2.78;72.70
7532;BME280;3807;49.030;8.714;2023-01-27T01:39:26;99657.87;;;2.89;72.39
7532;BME280;3807;49.030;8.714;2023-01-27T01:41:51;99662.91;;;2.89;72.39
7532;BME280;3807;49.030;8.714;2023-01-27T01:44:21;99655.34;;;2.84;72.41
7532;BME280;3807;49.030;8.714;2023-01-27T01:46:48;99652.84;;;2.85;72.47
7532;BME280;3807;49.030;8.714;2023-01-27T01:49:14;99654.50;;;2.79;71.96
7532;BME280;3807;49.030;8.714;2023-01-27T01:51:43;99645.28;;;2.79;72.62
7532;BME280;3807;49.030;8.714;2023-01-27T01:57:21;99641.97;;;2.86;72.37
7532;BME280;3807;49.030;8.714;2023-01-27T01:59:55;99641.97;;;2.88;72.31
7532;BME280;3807;49.030;8.714;2023-01-27T02:02:23;99641.09;;;2.84;72.42
7532;BME280;3807;49.030;8.714;2023-01-27T02:07:26;99642.78;;;2.85;72.42
7532;BME280;3807;49.030;8.714;2023-01-27T02:09:55;99640.25;;;2.85;72.35
7532;BME280;3807;49.030;8.714;2023-01-27T02:12:20;99641.97;;;2.88;72.31
7532;BME280;3807;49.030;8.714;2023-01-27T02:14:46;99647.81;;;2.87;72.40
7532;BME280;3807;49.030;8.714;2023-01-27T02:17:12;99646.97;;;2.88;72.35
7532;BME280;3807;49.030;8.714;2023-01-27T02:19:40;99647.00;;;2.86;72.29
7532;BME280;3807;49.030;8.714;2023-01-27T02:22:14;99647.81;;;2.85;72.34
7532;BME280;3807;49.030;8.714;2023-01-27T02:24:46;99652.00;;;2.85;72.41
7532;BME280;3807;49.030;8.714;2023-01-27T02:27:15;99647.81;;;2.87;72.34
7532;BME280;3807;49.030;8.714;2023-01-27T02:29:40;99642.78;;;2.85;72.41
7532;BME280;3807;49.030;8.714;2023-01-27T02:32:06;99649.50;;;2.85;72.35
7532;BME280;3807;49.030;8.714;2023-01-27T02:34:35;99651.19;;;2.86;72.28
7532;BME280;3807;49.030;8.714;2023-01-27T02:37:04;99642.78;;;2.82;72.48
7532;BME280;3807;49.030;8.714;2023-01-27T02:39:36;99646.97;;;2.83;72.44
7532;BME280;3807;49.030;8.714;2023-01-27T02:42:06;99640.28;;;2.87;72.38
7532;BME280;3807;49.030;8.714;2023-01-27T02:44:32;99640.28;;;2.84;72.39
7532;BME280;3807;49.030;8.714;2023-01-27T02:46:57;99641.09;;;2.80;72.47
7532;BME280;3807;49.030;8.714;2023-01-27T02:49:22;99641.09;;;2.84;72.43
7532;BME280;3807;49.030;8.714;2023-01-27T02:51:48;99633.59;;;2.86;72.36
7532;BME280;3807;49.030;8.714;2023-01-27T02:54:13;99629.38;;;2.80;72.53
7532;BME280;3807;49.030;8.714;2023-01-27T02:56:38;99639.44;;;2.88;72.29
7532;BME280;3807;49.030;8.714;2023-01-27T02:59:04;99631.06;;;2.86;72.39
7532;BME280;3807;49.030;8.714;2023-01-27T03:01:29;99631.03;;;2.78;72.60
7532;BME280;3807;49.030;8.714;2023-01-27T03:03:57;99632.72;;;2.82;72.47
7532;BME280;3807;49.030;8.714;2023-01-27T03:06:22;99635.22;;;2.76;72.82
7532;BME280;3807;49.030;8.714;2023-01-27T03:08:47;99628.53;;;2.80;72.54
7532;BME280;3807;49.030;8.714;2023-01-27T03:11:13;99631.88;;;2.80;72.55
7532;BME280;3807;49.030;8.714;2023-01-27T03:13:39;99635.25;;;2.79;72.57
7532;BME280;3807;49.030;8.714;2023-01-27T03:16:05;99633.59;;;2.86;72.40
7532;BME280;3807;49.030;8.714;2023-01-27T03:18:50;99638.56;;;2.81;72.54
7532;BME280;3807;49.030;8.714;2023-01-27T03:21:18;99636.88;;;2.74;72.59
7532;BME280;3807;49.030;8.714;2023-01-27T03:23:44;99641.91;;;2.77;72.68
7532;BME280;3807;49.030;8.714;2023-01-27T03:26:13;99646.94;;;2.71;72.77
7532;BME280;3807;49.030;8.714;2023-01-27T03:28:39;99636.06;;;2.78;72.69
7532;BME280;3807;49.030;8.714;2023-01-27T03:31:07;99632.69;;;2.78;72.63
7532;BME280;3807;49.030;8.714;2023-01-27T03:33:33;99643.59;;;2.78;72.52
7532;BME280;3807;49.030;8.714;2023-01-27T03:36:03;99639.38;;;2.71;72.88
7532;BME280;3807;49.030;8.714;2023-01-27T03:38:48;99636.91;;;2.77;72.60
7532;BME280;3807;49.030;8.714;2023-01-27T03:41:32;99631.00;;;2.71;72.79
7532;BME280;3807;49.030;8.714;2023-01-27T03:44:16;99637.75;;;2.76;72.68
7532;BME280;3807;49.030;8.714;2023-01-27T03:47:00;99639.41;;;2.77;72.70
7532;BME280;3807;49.030;8.714;2023-01-27T03:49:26;99648.63;;;2.75;72.71
7532;BME280;3807;49.030;8.714;2023-01-27T03:51:51;99651.16;;;2.72;72.85
7532;BME280;3807;49.030;8.714;2023-01-27T03:54:16;99651.13;;;2.74;72.85
7532;BME280;3807;49.030;8.714;2023-01-27T03:56:42;99649.44;;;2.68;73.06
7532;BME280;3807;49.030;8.714;2023-01-27T03:59:07;99654.47;;;2.70;72.88
7532;BME280;3807;49.030;8.714;2023-01-27T04:01:33;99651.16;;;2.77;72.79
7532;BME280;3807;49.030;8.714;2023-01-27T04:03:58;99657.00;;;2.77;72.72
7532;BME280;3807;49.030;8.714;2023-01-27T04:06:42;99664.56;;;2.76;72.89
7532;BME280;3807;49.030;8.714;2023-01-27T04:09:25;99661.19;;;2.71;72.99
7532;BME280;3807;49.030;8.714;2023-01-27T04:11:51;99660.34;;;2.70;73.02
7532;BME280;3807;49.030;8.714;2023-01-27T04:14:35;99665.37;;;2.72;72.94
7532;BME280;3807;49.030;8.714;2023-01-27T04:19:29;99668.72;;;2.71;72.98
7532;BME280;3807;49.030;8.714;2023-01-27T04:21:55;99667.91;;;2.73;72.84
7532;BME280;3807;49.030;8.714;2023-01-27T04:24:20;99670.38;;;2.72;72.93
7532;BME280;3807;49.030;8.714;2023-01-27T04:26:53;99675.41;;;2.72;73.08
7532;BME280;3807;49.030;8.714;2023-01-27T04:29:20;99673.75;;;2.74;73.00
7532;BME280;3807;49.030;8.714;2023-01-27T04:31:46;99672.09;;;2.74;72.92
7532;BME280;3807;49.030;8.714;2023-01-27T04:34:11;99672.91;;;2.72;72.99
7532;BME280;3807;49.030;8.714;2023-01-27T04:36:38;99666.25;;;2.80;72.71
7532;BME280;3807;49.030;8.714;2023-01-27T04:39:03;99664.56;;;2.77;72.84
7532;BME280;3807;49.030;8.714;2023-01-27T04:41:29;99664.53;;;2.74;72.86
7532;BME280;3807;49.030;8.714;2023-01-27T04:43:54;99670.41;;;2.78;72.88
7532;BME280;3807;49.030;8.714;2023-01-27T04:46:19;99667.91;;;2.76;72.90
7532;BME280;3807;49.030;8.714;2023-01-27T04:48:45;99675.47;;;2.76;72.90
7532;BME280;3807;49.030;8.714;2023-01-27T04:51:10;99671.25;;;2.75;72.90
7532;BME280;3807;49.030;8.714;2023-01-27T04:53:36;99672.06;;;2.70;73.03
7532;BME280;3807;49.030;8.714;2023-01-27T04:56:05;99672.91;;;2.67;73.17
7532;BME280;3807;49.030;8.714;2023-01-27T04:58:31;99673.78;;;2.72;72.94
7532;BME280;3807;49.030;8.714;2023-01-27T05:00:57;99678.78;;;2.75;72.87
7532;BME280;3807;49.030;8.714;2023-01-27T05:03:23;99672.97;;;2.79;72.75
7532;BME280;3807;49.030;8.714;2023-01-27T05:05:48;99672.94;;;2.78;72.85
7532;BME280;3807;49.030;8.714;2023-01-27T05:08:13;99673.78;;;2.78;72.67
7532;BME280;3807;49.030;8.714;2023-01-27T05:10:38;99677.97;;;2.73;72.95
7532;BME280;3807;49.030;8.714;2023-01-27T05:13:06;99683.78;;;2.68;73.11
7532;BME280;3807;49.030;8.714;2023-01-27T05:15:32;99682.13;;;2.65;73.30
7532;BME280;3807;49.030;8.714;2023-01-27T05:17:57;99672.91;;;2.75;72.96
7532;BME280;3807;49.030;8.714;2023-01-27T05:20:23;99673.78;;;2.72;72.98
7532;BME280;3807;49.030;8.714;2023-01-27T05:22:49;99671.25;;;2.74;72.98
7532;BME280;3807;49.030;8.714;2023-01-27T05:25:15;99670.44;;;2.81;72.79
7532;BME280;3807;49.030;8.714;2023-01-27T05:27:40;99682.97;;;2.75;72.92
7532;BME280;3807;49.030;8.714;2023-01-27T05:30:06;99684.59;;;2.59;73.14
7532;BME280;3807;49.030;8.714;2023-01-27T05:32:32;99678.75;;;2.58;73.49
7532;BME280;3807;49.030;8.714;2023-01-27T05:34:57;99679.59;;;2.63;73.34
7532;BME280;3807;49.030;8.714;2023-01-27T05:37:22;99685.44;;;2.64;73.27
7532;BME280;3807;49.030;8.714;2023-01-27T05:39:48;99687.97;;;2.64;73.36
7532;BME280;3807;49.030;8.714;2023-01-27T05:42:13;99690.47;;;2.61;73.48
7532;BME280;3807;49.030;8.714;2023-01-27T05:44:38;99695.53;;;2.67;73.17
7532;BME280;3807;49.030;8.714;2023-01-27T05:47:05;99698.88;;;2.66;73.21
7532;BME280;3807;49.030;8.714;2023-01-27T05:49:30;99688.84;;;2.75;73.05
7532;BME280;3807;49.030;8.714;2023-01-27T05:51:55;99691.31;;;2.58;73.52
7532;BME280;3807;49.030;8.714;2023-01-27T05:54:21;99696.34;;;2.58;73.55
7532;BME280;3807;49.030;8.714;2023-01-27T05:56:46;99694.69;;;2.65;73.15
7532;BME280;3807;49.030;8.714;2023-01-27T05:59:11;99693.75;;;2.51;73.81
7532;BME280;3807;49.030;8.714;2023-01-27T06:01:37;99688.87;;;2.72;73.00
7532;BME280;3807;49.030;8.714;2023-01-27T06:04:03;99693.03;;;2.66;73.14
7532;BME280;3807;49.030;8.714;2023-01-27T06:06:30;99691.25;;;2.45;73.94
7532;BME280;3807;49.030;8.714;2023-01-27T06:08:56;99691.28;;;2.57;73.61
7532;BME280;3807;49.030;8.714;2023-01-27T06:11:22;99700.53;;;2.62;73.26
7532;BME280;3807;49.030;8.714;2023-01-27T06:13:48;99702.19;;;2.60;73.45
7532;BME280;3807;49.030;8.714;2023-01-27T06:16:16;99705.53;;;2.56;73.47
7532;BME280;3807;49.030;8.714;2023-01-27T06:18:42;99703.87;;;2.65;73.16
7532;BME280;3807;49.030;8.714;2023-01-27T06:21:09;99705.50;;;2.49;72.83
7532;BME280;3807;49.030;8.714;2023-01-27T06:23:35;99709.69;;;2.53;73.68
7532;BME280;3807;49.030;8.714;2023-01-27T06:26:02;99708.09;;;2.66;73.03
7532;BME280;3807;49.030;8.714;2023-01-27T06:28:28;99708.94;;;2.66;73.14
7532;BME280;3807;49.030;8.714;2023-01-27T06:30:54;99704.75;;;2.71;72.93
7532;BME280;3807;49.030;8.714;2023-01-27T06:33:19;99714.81;;;2.70;72.49
7532;BME280;3807;49.030;8.714;2023-01-27T06:35:45;99711.44;;;2.58;73.10
7532;BME280;3807;49.030;8.714;2023-01-27T06:38:11;99712.28;;;2.67;72.95
7532;BME280;3807;49.030;8.714;2023-01-27T06:40:38;99708.00;;;2.47;73.60
7532;BME280;3807;49.030;8.714;2023-01-27T06:43:10;99710.59;;;2.62;73.21
7532;BME280;3807;49.030;8.714;2023-01-27T06:45:35;99719.87;;;2.73;72.86
7532;BME280;3807;49.030;8.714;2023-01-27T06:48:00;99716.50;;;2.74;72.69
7532;BME280;3807;49.030;8.714;2023-01-27T06:50:27;99724.88;;;2.71;72.90
7532;BME280;3807;49.030;8.714;2023-01-27T06:53:01;99727.44;;;2.76;72.58
7532;BME280;3807;49.030;8.714;2023-01-27T06:55:27;99736.63;;;2.69;72.92
7532;BME280;3807;49.030;8.714;2023-01-27T06:57:52;99731.56;;;2.66;73.01
7532;BME280;3807;49.030;8.714;2023-01-27T07:00:18;99727.41;;;2.74;72.62
7532;BME280;3807;49.030;8.714;2023-01-27T07:02:44;99729.94;;;2.74;72.55
7532;BME280;3807;49.030;8.714;2023-01-27T07:05:10;99734.13;;;2.72;72.73
7532;BME280;3807;49.030;8.714;2023-01-27T07:07:36;99725.72;;;2.75;72.57
7532;BME280;3807;49.030;8.714;2023-01-27T07:10:01;99735.78;;;2.69;72.97
7532;BME280;3807;49.030;8.714;2023-01-27T07:12:27;99736.63;;;2.72;72.85
7532;BME280;3807;49.030;8.714;2023-01-27T07:14:52;99750.88;;;2.69;73.08
7532;BME280;3807;49.030;8.714;2023-01-27T07:17:17;99744.19;;;2.72;72.76
7532;BME280;3807;49.030;8.714;2023-01-27T07:19:43;99750.88;;;2.70;72.76
7532;BME280;3807;49.030;8.714;2023-01-27T07:22:08;99750.03;;;2.71;72.77
7532;BME280;3807;49.030;8.714;2023-01-27T07:24:33;99765.13;;;2.74;72.48
7532;BME280;3807;49.030;8.714;2023-01-27T07:26:59;99760.91;;;2.67;73.04
7532;BME280;3807;49.030;8.714;2023-01-27T07:29:24;99767.59;;;2.68;72.61
7532;BME280;3807;49.030;8.714;2023-01-27T07:31:49;99772.63;;;2.62;72.48
7532;BME280;3807;49.030;8.714;2023-01-27T07:34:15;99775.19;;;2.73;72.90
7532;BME280;3807;49.030;8.714;2023-01-27T07:36:40;99782.59;;;2.53;73.15
7532;BME280;3807;49.030;8.714;2023-01-27T07:39:05;99785.06;;;2.42;73.02
7532;BME280;3807;49.030;8.714;2023-01-27T07:41:31;99784.31;;;2.57;73.53
7532;BME280;3807;49.030;8.714;2023-01-27T07:43:56;99789.38;;;2.65;73.01
7532;BME280;3807;49.030;8.714;2023-01-27T07:46:21;99800.19;;;2.54;73.35
7532;BME280;3807;49.030;8.714;2023-01-27T07:48:47;99798.56;;;2.61;73.21
7532;BME280;3807;49.030;8.714;2023-01-27T07:51:13;99796.03;;;2.52;72.70
7532;BME280;3807;49.030;8.714;2023-01-27T07:53:39;99789.38;;;2.65;73.10
7532;BME280;3807;49.030;8.714;2023-01-27T07:56:05;99799.41;;;2.58;72.80
7532;BME280;3807;49.030;8.714;2023-01-27T07:58:38;99797.66;;;2.50;73.36
7532;BME280;3807;49.030;8.714;2023-01-27T08:01:05;99798.66;;;2.69;72.93
7532;BME280;3807;49.030;8.714;2023-01-27T08:03:31;99807.03;;;2.75;72.60
7532;BME280;3807;49.030;8.714;2023-01-27T08:05:56;99809.50;;;2.61;72.98
7532;BME280;3807;49.030;8.714;2023-01-27T08:08:22;99808.69;;;2.70;72.91
7532;BME280;3807;49.030;8.714;2023-01-27T08:10:47;99812.94;;;2.77;72.66
7532;BME280;3807;49.030;8.714;2023-01-27T08:13:15;99812.88;;;2.71;72.75
7532;BME280;3807;49.030;8.714;2023-01-27T08:15:41;99817.91;;;2.65;72.65
7532;BME280;3807;49.030;8.714;2023-01-27T08:18:06;99821.16;;;2.53;73.33
7532;BME280;3807;49.030;8.714;2023-01-27T08:20:32;99817.87;;;2.62;73.00
7532;BME280;3807;49.030;8.714;2023-01-27T08:22:57;99817.97;;;2.76;72.52
7532;BME280;3807;49.030;8.714;2023-01-27T08:25:23;99816.25;;;2.72;72.11
7532;BME280;3807;49.030;8.714;2023-01-27T08:27:50;99815.31;;;2.57;72.81
7532;BME280;3807;49.030;8.714;2023-01-27T08:30:16;99820.31;;;2.53;73.26
7532;BME280;3807;49.030;8.714;2023-01-27T08:32:42;99817.81;;;2.56;72.86
7532;BME280;3807;49.030;8.714;2023-01-27T08:35:07;99814.44;;;2.49;73.32
7532;BME280;3807;49.030;8.714;2023-01-27T08:37:33;99812.88;;;2.68;72.76
7532;BME280;3807;49.030;8.714;2023-01-27T08:39:58;99806.97;;;2.61;72.06
7532;BME280;3807;49.030;8.714;2023-01-27T08:42:23;99817.94;;;2.74;72.75
7532;BME280;3807;49.030;8.714;2023-01-27T08:44:49;99810.31;;;2.59;73.02
7532;BME280;3807;49.030;8.714;2023-01-27T08:47:14;99810.41;;;2.73;72.43
7532;BME280;3807;49.030;8.714;2023-01-27T08:49:39;99813.62;;;2.55;73.46
7532;BME280;3807;49.030;8.714;2023-01-27T08:52:05;99819.63;;;2.78;72.59
7532;BME280;3807;49.030;8.714;2023-01-27T08:54:30;99812.88;;;2.71;72.79
7532;BME280;3807;49.030;8.714;2023-01-27T08:56:55;99809.50;;;2.68;73.04
7532;BME280;3807;49.030;8.714;2023-01-27T08:59:21;99813.66;;;2.59;72.02
7532;BME280;3807;49.030;8.714;2023-01-27T09:01:46;99816.94;;;2.49;71.63
7532;BME280;3807;49.030;8.714;2023-01-27T09:04:11;99828.78;;;2.66;73.26
7532;BME280;3807;49.030;8.714;2023-01-27T09:06:37;99824.66;;;2.75;72.15
7532;BME280;3807;49.030;8.714;2023-01-27T09:09:02;99827.97;;;2.67;72.80
7532;BME280;3807;49.030;8.714;2023-01-27T09:11:35;99826.31;;;2.70;72.78
7532;BME280;3807;49.030;8.714;2023-01-27T09:14:01;99823.78;;;2.69;72.59
7532;BME280;3807;49.030;8.714;2023-01-27T09:16:27;99829.56;;;2.57;73.31
7532;BME280;3807;49.030;8.714;2023-01-27T09:18:53;99832.06;;;2.52;73.60
7532;BME280;3807;49.030;8.714;2023-01-27T09:21:19;99837.06;;;2.48;73.57
7532;BME280;3807;49.030;8.714;2023-01-27T09:23:47;99843.00;;;2.59;73.64
7532;BME280;3807;49.030;8.714;2023-01-27T09:26:13;99848.81;;;2.52;72.37
7532;BME280;3807;49.030;8.714;2023-01-27T09:28:38;99839.66;;;2.58;73.63
7532;BME280;3807;49.030;8.714;2023-01-27T09:31:03;99840.41;;;2.48;73.68
7532;BME280;3807;49.030;8.714;2023-01-27T09:33:29;99845.47;;;2.51;73.57
7532;BME280;3807;49.030;8.714;2023-01-27T09:36:07;99848.94;;;2.69;73.13
7532;BME280;3807;49.030;8.714;2023-01-27T09:38:38;99843.88;;;2.66;72.57
7532;BME280;3807;49.030;8.714;2023-01-27T09:41:45;99842.31;;;2.80;72.86
7532;BME280;3807;49.030;8.714;2023-01-27T09:44:34;99847.19;;;2.60;72.43
7532;BME280;3807;49.030;8.714;2023-01-27T09:47:59;99849.59;;;2.46;73.85
7532;BME280;3807;49.030;8.714;2023-01-27T09:50:18;99857.91;;;2.39;73.84
7532;BME280;3807;49.030;8.714;2023-01-27T09:58:31;99849.63;;;2.51;71.96
7532;BME280;3807;49.030;8.714;2023-01-27T10:06:47;99851.50;;;2.76;72.97
7532;BME280;3807;49.030;8.714;2023-01-27T10:09:50;99844.62;;;2.57;74.11
7532;BME280;3807;49.030;8.714;2023-01-27T10:23:12;99844.75;;;2.69;73.86
7532;BME280;3807;49.030;8.714;2023-01-27T10:26:08;99848.19;;;2.85;73.48
7532;BME280;3807;49.030;8.714;2023-01-27T10:28:33;99843.22;;;2.90;73.32
7532;BME280;3807;49.030;8.714;2023-01-27T10:31:08;99851.59;;;2.95;73.46
7532;BME280;3807;49.030;8.714;2023-01-27T10:33:54;99849.94;;;2.97;71.92
7532;BME280;3807;49.030;8.714;2023-01-27T10:41:54;99844.78;;;2.72;73.76
7532;BME280;3807;49.030;8.714;2023-01-27T10:44:46;99834.72;;;2.78;73.33
7532;BME280;3807;49.030;8.714;2023-01-27T10:47:17;99842.34;;;2.87;73.26
7532;BME280;3807;49.030;8.714;2023-01-27T10:49:56;99839.72;;;2.69;74.02
7532;BME280;3807;49.030;8.714;2023-01-27T10:52:28;99834.66;;;2.68;74.09
7532;BME280;3807;49.030;8.714;2023-01-27T10:55:00;99843.91;;;2.72;73.75
7532;BME280;3807;49.030;8.714;2023-01-27T10:57:34;99835.69;;;2.94;72.92
7532;BME280;3807;49.030;8.714;2023-01-27T11:00:04;99841.53;;;2.92;72.34
7532;BME280;3807;49.030;8.714;2023-01-27T11:02:46;99840.56;;;2.73;72.58
7532;BME280;3807;49.030;8.714;2023-01-27T11:05:20;99838.16;;;2.88;73.59
7532;BME280;3807;49.030;8.714;2023-01-27T11:07:56;99839.03;;;2.93;71.63
7532;BME280;3807;49.030;8.714;2023-01-27T11:10:34;99839.09;;;3.10;72.98
7532;BME280;3807;49.030;8.714;2023-01-27T11:13:02;99832.41;;;3.07;72.12
7532;BME280;3807;49.030;8.714;2023-01-27T11:15:31;99838.97;;;2.82;73.00
7532;BME280;3807;49.030;8.714;2023-01-27T11:18:21;99833.25;;;3.08;73.16
7532;BME280;3807;49.030;8.714;2023-01-27T11:21:16;99843.34;;;3.20;73.12
7532;BME280;3807;49.030;8.714;2023-01-27T11:23:43;99838.94;;;2.79;71.13
7532;BME280;3807;49.030;8.714;2023-01-27T11:32:00;99819.91;;;3.24;72.96
7532;BME280;3807;49.030;8.714;2023-01-27T11:37:30;99817.34;;;3.15;73.20
7532;BME280;3807;49.030;8.714;2023-01-27T11:39:56;99819.00;;;3.12;73.01
7532;BME280;3807;49.030;8.714;2023-01-27T11:42:29;99819.00;;;3.12;73.38
7532;BME280;3807;49.030;8.714;2023-01-27T11:44:56;99819.00;;;3.16;73.24
7532;BME280;3807;49.030;8.714;2023-01-27T11:47:25;99821.53;;;3.16;73.12
7532;BME280;3807;49.030;8.714;2023-01-27T11:49:53;99823.25;;;3.26;73.14
7532;BME280;3807;49.030;8.714;2023-01-27T11:52:21;99819.88;;;3.18;72.75
7532;BME280;3807;49.030;8.714;2023-01-27T11:57:28;99809.03;;;3.36;72.47
7532;BME280;3807;49.030;8.714;2023-01-27T12:00:02;99811.53;;;3.28;71.95
7532;BME280;3807;49.030;8.714;2023-01-27T12:02:43;99812.34;;;3.29;72.36
7532;BME280;3807;49.030;8.714;2023-01-27T12:10:36;99798.84;;;3.10;73.11
7532;BME280;3807;49.030;8.714;2023-01-27T12:13:20;99808.91;;;3.13;72.23
7532;BME280;3807;49.030;8.714;2023-01-27T12:15:54;99808.88;;;3.05;73.58
7532;BME280;3807;49.030;8.714;2023-01-27T12:21:34;99802.25;;;3.21;73.07
7532;BME280;3807;49.030;8.714;2023-01-27T12:24:15;99803.09;;;3.22;73.27
7532;BME280;3807;49.030;8.714;2023-01-27T12:26:43;99814.88;;;3.24;72.78
7532;BME280;3807;49.030;8.714;2023-01-27T12:29:19;99808.84;;;2.98;71.29
7532;BME280;3807;49.030;8.714;2023-01-27T12:31:53;99809.81;;;3.27;72.80
7532;BME280;3807;49.030;8.714;2023-01-27T12:34:31;99812.34;;;3.27;73.02
7532;BME280;3807;49.030;8.714;2023-01-27T12:36:57;99812.34;;;3.24;73.25
7532;BME280;3807;49.030;8.714;2023-01-27T12:41:54;99793.94;;;3.48;71.71
7532;BME280;3807;49.030;8.714;2023-01-27T12:44:22;99789.78;;;3.56;71.62
7532;BME280;3807;49.030;8.714;2023-01-27T12:47:01;99784.75;;;3.64;71.47
7532;BME280;3807;49.030;8.714;2023-01-27T12:49:32;99788.09;;;3.57;71.81
7532;BME280;3807;49.030;8.714;2023-01-27T12:52:01;99796.38;;;3.24;72.47
7532;BME280;3807;49.030;8.714;2023-01-27T12:54:28;99798.13;;;3.36;72.38
7532;BME280;3807;49.030;8.714;2023-01-27T12:56:59;99796.47;;;3.48;72.34
7532;BME280;3807;49.030;8.714;2023-01-27T12:59:25;99798.16;;;3.46;72.28
7532;BME280;3807;49.030;8.714;2023-01-27T13:02:15;99799.78;;;3.29;72.11
7532;BME280;3807;49.030;8.714;2023-01-27T13:04:48;99799.84;;;3.50;72.23
7532;BME280;3807;49.030;8.714;2023-01-27T13:07:18;99804.03;;;3.50;71.90
7532;BME280;3807;49.030;8.714;2023-01-27T13:09:56;99803.91;;;3.16;69.76
7532;BME280;3807;49.030;8.714;2023-01-27T13:12:25;99805.72;;;3.49;72.39
7532;BME280;3807;49.030;8.714;2023-01-27T13:15:04;99814.03;;;3.30;71.12
7532;BME280;3807;49.030;8.714;2023-01-27T13:17:44;99814.91;;;3.35;70.10
7532;BME280;3807;49.030;8.714;2023-01-27T13:20:27;99812.34;;;3.26;70.73
7532;BME280;3807;49.030;8.714;2023-01-27T13:23:24;99815.72;;;3.37;71.60
7532;BME280;3807;49.030;8.714;2023-01-27T13:26:07;99806.59;;;3.73;71.45
7532;BME280;3807;49.030;8.714;2023-01-27T13:33:57;99821.75;;;3.80;70.91
7532;BME280;3807;49.030;8.714;2023-01-27T13:36:41;99820.03;;;3.72;71.47
7532;BME280;3807;49.030;8.714;2023-01-27T13:39:24;99825.06;;;3.64;71.65
7532;BME280;3807;49.030;8.714;2023-01-27T13:42:08;99826.66;;;3.44;70.80
7532;BME280;3807;49.030;8.714;2023-01-27T13:44:41;99812.44;;;3.49;69.29
7532;BME280;3807;49.030;8.714;2023-01-27T13:47:17;99821.69;;;3.65;70.47
7532;BME280;3807;49.030;8.714;2023-01-27T13:49:54;99812.50;;;3.73;71.60
7532;BME280;3807;49.030;8.714;2023-01-27T13:52:23;99814.19;;;3.84;69.96
7532;BME280;3807;49.030;8.714;2023-01-27T13:54:49;99817.53;;;3.90;70.42
7532;BME280;3807;49.030;8.714;2023-01-27T14:00:23;99811.66;;;3.76;71.49
7532;BME280;3807;49.030;8.714;2023-01-27T14:03:59;99809.13;;;3.76;71.17
7532;BME280;3807;49.030;8.714;2023-01-27T14:06:28;99814.19;;;4.00;70.83
7532;BME280;3807;49.030;8.714;2023-01-27T14:11:45;99812.53;;;3.89;71.37
7532;BME280;3807;49.030;8.714;2023-01-27T14:14:20;99813.38;;;3.97;71.21
7532;BME280;3807;49.030;8.714;2023-01-27T14:22:26;99813.34;;;3.85;70.10
7532;BME280;3807;49.030;8.714;2023-01-27T14:27:49;99808.31;;;4.00;71.22
7532;BME280;3807;49.030;8.714;2023-01-27T14:30:39;99811.69;;;3.93;71.55
7532;BME280;3807;49.030;8.714;2023-01-27T14:35:43;99814.19;;;4.00;71.34
7532;BME280;3807;49.030;8.714;2023-01-27T14:38:36;99830.19;;;4.10;70.82
7532;BME280;3807;49.030;8.714;2023-01-27T14:51:56;99839.31;;;3.62;70.70
7532;BME280;3807;49.030;8.714;2023-01-27T15:00:57;99829.38;;;4.19;70.90
7532;BME280;3807;49.030;8.714;2023-01-27T15:09:22;99836.06;;;4.35;70.45
7532;BME280;3807;49.030;8.714;2023-01-27T15:14:48;99841.94;;;4.14;71.02
7532;BME280;3807;49.030;8.714;2023-01-27T15:25:01;99847.00;;;4.20;71.17
7532;BME280;3807;49.030;8.714;2023-01-27T15:27:31;99844.50;;;4.29;70.51
7532;BME280;3807;49.030;8.714;2023-01-27T15:32:44;99855.41;;;4.30;70.73
7532;BME280;3807;49.030;8.714;2023-01-27T15:35:37;99847.84;;;4.22;71.10
7532;BME280;3807;49.030;8.714;2023-01-27T15:43:21;99857.91;;;4.32;70.09
7532;BME280;3807;49.030;8.714;2023-01-27T15:45:47;99855.41;;;4.27;70.80
7532;BME280;3807;49.030;8.714;2023-01-27T15:48:21;99853.72;;;4.20;71.22